sensor_id;sensor_type;location;lat;lon;timestamp;P1;durP1;ratioP1;P2;durP2;ratioP2
12780;SDS011;6454;43.304;24.344;2023-02-26T00:02:18;14.40;;;7.45;;
12780;SDS011;6454;43.304;24.344;2023-02-26T00:04:46;17.80;;;6.95;;
12780;SDS011;6454;43.304;24.344;2023-02-26T00:07:13;13.20;;;8.13;;
12780;SDS011;6454;43.304;24.344;2023-02-26T00:09:39;12.15;;;7.65;;
12780;SDS011;6454;43.304;24.344;2023-02-26T00:12:08;15.25;;;8.45;;
12780;SDS011;6454;43.304;24.344;2023-02-26T00:14:37;15.85;;;8.60;;
12780;SDS011;6454;43.304;24.344;2023-02-26T00:17:22;13.93;;;7.82;;
12780;SDS011;6454;43.304;24.344;2023-02-26T00:20:04;16.40;;;7.15;;
12780;SDS011;6454;43.304;24.344;2023-02-26T00:22:33;16.85;;;8.50;;
12780;SDS011;6454;43.304;24.344;2023-02-26T00:25:00;12.35;;;6.57;;
12780;SDS011;6454;43.304;24.344;2023-02-26T00:27:27;12.57;;;7.20;;
12780;SDS011;6454;43.304;24.344;2023-02-26T00:29:54;15.10;;;8.18;;
12780;SDS011;6454;43.304;24.344;2023-02-26T00:32:21;16.65;;;7.82;;
12780;SDS011;6454;43.304;24.344;2023-02-26T00:34:48;13.70;;;7.93;;
12780;SDS011;6454;43.304;24.344;2023-02-26T00:37:26;16.38;;;8.27;;
12780;SDS011;6454;43.304;24.344;2023-02-26T00:40:13;13.90;;;7.63;;
12780;SDS011;6454;43.304;24.344;2023-02-26T00:42:45;13.73;;;7.90;;
12780;SDS011;6454;43.304;24.344;2023-02-26T00:45:13;13.93;;;7.80;;
12780;SDS011;6454;43.304;24.344;2023-02-26T00:47:43;10.93;;;7.88;;
12780;SDS011;6454;43.304;24.344;2023-02-26T00:50:16;16.27;;;7.60;;
12780;SDS011;6454;43.304;24.344;2023-02-26T00:52:48;15.10;;;7.35;;
12780;SDS011;6454;43.304;24.344;2023-02-26T00:55:23;15.88;;;7.68;;
12780;SDS011;6454;43.304;24.344;2023-02-26T00:57:50;14.32;;;7.95;;
12780;SDS011;6454;43.304;24.344;2023-02-26T01:00:17;12.70;;;7.75;;
12780;SDS011;6454;43.304;24.344;2023-02-26T01:02:45;14.30;;;8.23;;
12780;SDS011;6454;43.304;24.344;2023-02-26T01:05:13;15.98;;;7.95;;
12780;SDS011;6454;43.304;24.344;2023-02-26T01:07:43;16.90;;;7.72;;
12780;SDS011;6454;43.304;24.344;2023-02-26T01:10:20;14.18;;;7.57;;
12780;SDS011;6454;43.304;24.344;2023-02-26T01:12:48;16.88;;;7.72;;
12780;SDS011;6454;43.304;24.344;2023-02-26T01:15:15;13.50;;;8.18;;
12780;SDS011;6454;43.304;24.344;2023-02-26T01:17:43;13.85;;;7.20;;
12780;SDS011;6454;43.304;24.344;2023-02-26T01:20:17;13.13;;;7.22;;
12780;SDS011;6454;43.304;24.344;2023-02-26T01:22:46;11.52;;;6.65;;
12780;SDS011;6454;43.304;24.344;2023-02-26T01:25:20;17.40;;;8.85;;
12780;SDS011;6454;43.304;24.344;2023-02-26T01:27:51;13.93;;;7.45;;
12780;SDS011;6454;43.304;24.344;2023-02-26T01:30:21;12.35;;;7.57;;
12780;SDS011;6454;43.304;24.344;2023-02-26T01:32:50;16.77;;;8.50;;
12780;SDS011;6454;43.304;24.344;2023-02-26T01:35:28;11.15;;;7.22;;
12780;SDS011;6454;43.304;24.344;2023-02-26T01:38:08;13.00;;;7.80;;
12780;SDS011;6454;43.304;24.344;2023-02-26T01:40:54;17.52;;;8.02;;
12780;SDS011;6454;43.304;24.344;2023-02-26T01:44:04;12.77;;;7.57;;
12780;SDS011;6454;43.304;24.344;2023-02-26T01:46:44;15.18;;;7.07;;
12780;SDS011;6454;43.304;24.344;2023-02-26T01:49:24;12.25;;;6.88;;
12780;SDS011;6454;43.304;24.344;2023-02-26T01:51:52;9.63;;;7.38;;
12780;SDS011;6454;43.304;24.344;2023-02-26T01:54:21;15.93;;;7.93;;
12780;SDS011;6454;43.304;24.344;2023-02-26T01:56:52;13.18;;;7.30;;
12780;SDS011;6454;43.304;24.344;2023-02-26T01:59:22;12.98;;;7.30;;
12780;SDS011;6454;43.304;24.344;2023-02-26T02:01:50;16.85;;;8.07;;
12780;SDS011;6454;43.304;24.344;2023-02-26T02:04:18;11.02;;;5.93;;
12780;SDS011;6454;43.304;24.344;2023-02-26T02:06:46;17.15;;;5.18;;
12780;SDS011;6454;43.304;24.344;2023-02-26T02:09:13;7.18;;;3.67;;
12780;SDS011;6454;43.304;24.344;2023-02-26T02:11:44;14.15;;;4.22;;
12780;SDS011;6454;43.304;24.344;2023-02-26T02:14:26;8.70;;;3.33;;
12780;SDS011;6454;43.304;24.344;2023-02-26T02:17:02;11.48;;;3.65;;
12780;SDS011;6454;43.304;24.344;2023-02-26T02:22:55;9.23;;;3.75;;
12780;SDS011;6454;43.304;24.344;2023-02-26T02:25:49;10.35;;;4.47;;
12780;SDS011;6454;43.304;24.344;2023-02-26T02:28:36;16.73;;;3.90;;
12780;SDS011;6454;43.304;24.344;2023-02-26T02:31:16;8.93;;;3.80;;
12780;SDS011;6454;43.304;24.344;2023-02-26T02:33:49;14.10;;;4.05;;
12780;SDS011;6454;43.304;24.344;2023-02-26T02:36:22;8.13;;;3.85;;
12780;SDS011;6454;43.304;24.344;2023-02-26T02:38:54;11.30;;;3.78;;
12780;SDS011;6454;43.304;24.344;2023-02-26T02:41:27;12.55;;;4.53;;
12780;SDS011;6454;43.304;24.344;2023-02-26T02:43:58;10.52;;;3.83;;
12780;SDS011;6454;43.304;24.344;2023-02-26T02:46:29;12.48;;;4.32;;
12780;SDS011;6454;43.304;24.344;2023-02-26T02:49:00;10.82;;;4.20;;
12780;SDS011;6454;43.304;24.344;2023-02-26T02:51:31;16.48;;;3.88;;
12780;SDS011;6454;43.304;24.344;2023-02-26T02:54:00;5.75;;;3.40;;
12780;SDS011;6454;43.304;24.344;2023-02-26T02:56:33;15.20;;;4.35;;
12780;SDS011;6454;43.304;24.344;2023-02-26T02:59:03;13.90;;;4.25;;
12780;SDS011;6454;43.304;24.344;2023-02-26T03:01:38;10.85;;;4.50;;
12780;SDS011;6454;43.304;24.344;2023-02-26T03:04:07;16.33;;;3.90;;
12780;SDS011;6454;43.304;24.344;2023-02-26T03:06:36;11.68;;;3.35;;
12780;SDS011;6454;43.304;24.344;2023-02-26T03:09:03;10.15;;;3.78;;
12780;SDS011;6454;43.304;24.344;2023-02-26T03:11:32;10.07;;;3.60;;
12780;SDS011;6454;43.304;24.344;2023-02-26T03:14:00;12.48;;;3.58;;
12780;SDS011;6454;43.304;24.344;2023-02-26T03:19:36;12.63;;;3.70;;
12780;SDS011;6454;43.304;24.344;2023-02-26T03:22:08;6.85;;;3.70;;
12780;SDS011;6454;43.304;24.344;2023-02-26T03:24:44;10.80;;;3.50;;
12780;SDS011;6454;43.304;24.344;2023-02-26T03:27:16;16.55;;;3.95;;
12780;SDS011;6454;43.304;24.344;2023-02-26T03:29:49;17.50;;;3.75;;
12780;SDS011;6454;43.304;24.344;2023-02-26T03:32:22;10.65;;;3.47;;
12780;SDS011;6454;43.304;24.344;2023-02-26T03:34:55;13.95;;;3.95;;
12780;SDS011;6454;43.304;24.344;2023-02-26T03:37:30;12.65;;;3.85;;
12780;SDS011;6454;43.304;24.344;2023-02-26T03:40:04;12.10;;;3.50;;
12780;SDS011;6454;43.304;24.344;2023-02-26T03:42:35;14.98;;;3.83;;
12780;SDS011;6454;43.304;24.344;2023-02-26T03:45:08;8.77;;;3.67;;
12780;SDS011;6454;43.304;24.344;2023-02-26T03:47:39;11.18;;;3.88;;
12780;SDS011;6454;43.304;24.344;2023-02-26T03:50:12;10.10;;;3.40;;
12780;SDS011;6454;43.304;24.344;2023-02-26T03:52:43;12.18;;;3.47;;
12780;SDS011;6454;43.304;24.344;2023-02-26T03:55:14;9.90;;;4.00;;
12780;SDS011;6454;43.304;24.344;2023-02-26T03:57:43;11.75;;;4.13;;
12780;SDS011;6454;43.304;24.344;2023-02-26T04:00:11;10.00;;;3.90;;
12780;SDS011;6454;43.304;24.344;2023-02-26T04:02:41;12.68;;;4.07;;
12780;SDS011;6454;43.304;24.344;2023-02-26T04:05:13;8.02;;;4.00;;
12780;SDS011;6454;43.304;24.344;2023-02-26T04:07:43;13.98;;;4.43;;
12780;SDS011;6454;43.304;24.344;2023-02-26T04:10:13;15.73;;;4.20;;
12780;SDS011;6454;43.304;24.344;2023-02-26T04:12:43;13.07;;;4.75;;
12780;SDS011;6454;43.304;24.344;2023-02-26T04:15:10;14.30;;;4.55;;
12780;SDS011;6454;43.304;24.344;2023-02-26T04:17:37;10.13;;;4.20;;
12780;SDS011;6454;43.304;24.344;2023-02-26T04:20:06;12.20;;;4.35;;
12780;SDS011;6454;43.304;24.344;2023-02-26T04:22:35;16.70;;;4.93;;
12780;SDS011;6454;43.304;24.344;2023-02-26T04:25:02;7.10;;;4.13;;
12780;SDS011;6454;43.304;24.344;2023-02-26T04:27:29;10.52;;;4.30;;
12780;SDS011;6454;43.304;24.344;2023-02-26T04:29:56;14.30;;;4.55;;
12780;SDS011;6454;43.304;24.344;2023-02-26T04:32:23;10.20;;;4.57;;
12780;SDS011;6454;43.304;24.344;2023-02-26T04:34:50;14.10;;;5.07;;
12780;SDS011;6454;43.304;24.344;2023-02-26T04:37:18;16.85;;;5.30;;
12780;SDS011;6454;43.304;24.344;2023-02-26T04:39:45;14.68;;;4.90;;
12780;SDS011;6454;43.304;24.344;2023-02-26T04:42:11;11.18;;;4.65;;
12780;SDS011;6454;43.304;24.344;2023-02-26T04:44:38;12.63;;;4.80;;
12780;SDS011;6454;43.304;24.344;2023-02-26T04:47:05;12.57;;;4.40;;
12780;SDS011;6454;43.304;24.344;2023-02-26T04:49:32;13.38;;;4.57;;
12780;SDS011;6454;43.304;24.344;2023-02-26T04:51:58;13.00;;;4.38;;
12780;SDS011;6454;43.304;24.344;2023-02-26T04:54:27;8.80;;;4.30;;
12780;SDS011;6454;43.304;24.344;2023-02-26T04:56:53;10.02;;;4.40;;
12780;SDS011;6454;43.304;24.344;2023-02-26T04:59:20;11.80;;;4.38;;
12780;SDS011;6454;43.304;24.344;2023-02-26T05:01:47;13.82;;;5.22;;
12780;SDS011;6454;43.304;24.344;2023-02-26T05:04:14;16.55;;;4.60;;
12780;SDS011;6454;43.304;24.344;2023-02-26T05:06:40;11.02;;;4.57;;
12780;SDS011;6454;43.304;24.344;2023-02-26T05:09:07;11.50;;;3.90;;
12780;SDS011;6454;43.304;24.344;2023-02-26T05:11:35;8.07;;;3.83;;
12780;SDS011;6454;43.304;24.344;2023-02-26T05:14:02;13.88;;;5.03;;
12780;SDS011;6454;43.304;24.344;2023-02-26T05:16:29;12.10;;;4.40;;
12780;SDS011;6454;43.304;24.344;2023-02-26T05:18:58;11.18;;;4.25;;
12780;SDS011;6454;43.304;24.344;2023-02-26T05:21:27;10.77;;;4.38;;
12780;SDS011;6454;43.304;24.344;2023-02-26T05:23:55;9.57;;;4.57;;
12780;SDS011;6454;43.304;24.344;2023-02-26T05:26:22;12.05;;;4.60;;
12780;SDS011;6454;43.304;24.344;2023-02-26T05:28:50;10.43;;;4.82;;
12780;SDS011;6454;43.304;24.344;2023-02-26T05:31:18;16.77;;;5.78;;
12780;SDS011;6454;43.304;24.344;2023-02-26T05:33:45;18.00;;;6.95;;
12780;SDS011;6454;43.304;24.344;2023-02-26T05:36:12;12.05;;;5.75;;
12780;SDS011;6454;43.304;24.344;2023-02-26T05:38:38;11.85;;;4.97;;
12780;SDS011;6454;43.304;24.344;2023-02-26T05:41:05;11.50;;;5.97;;
12780;SDS011;6454;43.304;24.344;2023-02-26T05:43:32;13.18;;;4.55;;
12780;SDS011;6454;43.304;24.344;2023-02-26T05:46:01;13.35;;;5.38;;
12780;SDS011;6454;43.304;24.344;2023-02-26T05:48:28;12.48;;;4.15;;
12780;SDS011;6454;43.304;24.344;2023-02-26T05:50:55;12.02;;;4.20;;
12780;SDS011;6454;43.304;24.344;2023-02-26T05:53:22;6.88;;;3.85;;
12780;SDS011;6454;43.304;24.344;2023-02-26T05:55:48;14.88;;;4.43;;
12780;SDS011;6454;43.304;24.344;2023-02-26T05:58:15;9.50;;;4.05;;
12780;SDS011;6454;43.304;24.344;2023-02-26T06:00:42;8.00;;;3.90;;
12780;SDS011;6454;43.304;24.344;2023-02-26T06:03:10;14.70;;;3.97;;
12780;SDS011;6454;43.304;24.344;2023-02-26T06:05:37;14.23;;;4.13;;
12780;SDS011;6454;43.304;24.344;2023-02-26T06:08:04;8.88;;;3.72;;
12780;SDS011;6454;43.304;24.344;2023-02-26T06:10:31;16.98;;;4.40;;
12780;SDS011;6454;43.304;24.344;2023-02-26T06:12:58;8.73;;;4.28;;
12780;SDS011;6454;43.304;24.344;2023-02-26T06:15:25;12.52;;;4.50;;
12780;SDS011;6454;43.304;24.344;2023-02-26T06:17:52;11.50;;;4.80;;
12780;SDS011;6454;43.304;24.344;2023-02-26T06:20:20;8.25;;;4.10;;
12780;SDS011;6454;43.304;24.344;2023-02-26T06:22:47;10.65;;;3.80;;
12780;SDS011;6454;43.304;24.344;2023-02-26T06:25:14;13.57;;;4.05;;
12780;SDS011;6454;43.304;24.344;2023-02-26T06:27:41;14.80;;;4.28;;
12780;SDS011;6454;43.304;24.344;2023-02-26T06:30:09;10.45;;;4.60;;
12780;SDS011;6454;43.304;24.344;2023-02-26T06:32:36;12.82;;;4.20;;
12780;SDS011;6454;43.304;24.344;2023-02-26T06:35:03;10.75;;;4.30;;
12780;SDS011;6454;43.304;24.344;2023-02-26T06:37:32;14.52;;;5.45;;
12780;SDS011;6454;43.304;24.344;2023-02-26T06:39:59;19.52;;;9.27;;
12780;SDS011;6454;43.304;24.344;2023-02-26T06:42:26;13.70;;;5.55;;
12780;SDS011;6454;43.304;24.344;2023-02-26T06:44:53;13.95;;;5.32;;
12780;SDS011;6454;43.304;24.344;2023-02-26T06:47:21;13.07;;;5.05;;
12780;SDS011;6454;43.304;24.344;2023-02-26T06:49:47;13.90;;;4.50;;
12780;SDS011;6454;43.304;24.344;2023-02-26T06:52:14;15.35;;;4.60;;
12780;SDS011;6454;43.304;24.344;2023-02-26T06:54:42;11.68;;;4.03;;
12780;SDS011;6454;43.304;24.344;2023-02-26T06:57:09;14.35;;;4.68;;
12780;SDS011;6454;43.304;24.344;2023-02-26T06:59:36;8.43;;;4.30;;
12780;SDS011;6454;43.304;24.344;2023-02-26T07:02:03;10.10;;;4.38;;
12780;SDS011;6454;43.304;24.344;2023-02-26T07:04:30;12.57;;;5.03;;
12780;SDS011;6454;43.304;24.344;2023-02-26T07:06:56;10.35;;;4.50;;
12780;SDS011;6454;43.304;24.344;2023-02-26T07:09:23;16.48;;;4.57;;
12780;SDS011;6454;43.304;24.344;2023-02-26T07:11:51;14.85;;;4.70;;
12780;SDS011;6454;43.304;24.344;2023-02-26T07:14:18;12.02;;;4.78;;
12780;SDS011;6454;43.304;24.344;2023-02-26T07:16:45;13.80;;;4.63;;
12780;SDS011;6454;43.304;24.344;2023-02-26T07:19:12;12.85;;;3.88;;
12780;SDS011;6454;43.304;24.344;2023-02-26T07:21:38;11.48;;;3.88;;
12780;SDS011;6454;43.304;24.344;2023-02-26T07:24:06;9.20;;;3.53;;
12780;SDS011;6454;43.304;24.344;2023-02-26T07:26:33;13.40;;;4.65;;
12780;SDS011;6454;43.304;24.344;2023-02-26T07:29:02;11.57;;;4.38;;
12780;SDS011;6454;43.304;24.344;2023-02-26T07:31:28;15.93;;;4.90;;
12780;SDS011;6454;43.304;24.344;2023-02-26T07:33:55;13.18;;;4.18;;
12780;SDS011;6454;43.304;24.344;2023-02-26T07:36:22;13.07;;;4.20;;
12780;SDS011;6454;43.304;24.344;2023-02-26T07:38:49;15.02;;;4.93;;
12780;SDS011;6454;43.304;24.344;2023-02-26T07:41:16;13.90;;;4.38;;
12780;SDS011;6454;43.304;24.344;2023-02-26T07:43:43;16.80;;;4.72;;
12780;SDS011;6454;43.304;24.344;2023-02-26T07:46:12;10.90;;;4.13;;
12780;SDS011;6454;43.304;24.344;2023-02-26T07:48:39;12.82;;;4.78;;
12780;SDS011;6454;43.304;24.344;2023-02-26T07:51:05;10.73;;;4.60;;
12780;SDS011;6454;43.304;24.344;2023-02-26T07:53:33;10.00;;;4.60;;
12780;SDS011;6454;43.304;24.344;2023-02-26T07:56:00;15.68;;;5.32;;
12780;SDS011;6454;43.304;24.344;2023-02-26T07:58:27;11.88;;;4.15;;
12780;SDS011;6454;43.304;24.344;2023-02-26T08:00:53;14.68;;;4.30;;
12780;SDS011;6454;43.304;24.344;2023-02-26T08:03:22;14.05;;;4.00;;
12780;SDS011;6454;43.304;24.344;2023-02-26T08:05:48;17.30;;;4.05;;
12780;SDS011;6454;43.304;24.344;2023-02-26T08:08:15;15.45;;;3.72;;
12780;SDS011;6454;43.304;24.344;2023-02-26T08:10:42;14.75;;;4.45;;
12780;SDS011;6454;43.304;24.344;2023-02-26T08:13:09;12.43;;;3.63;;
12780;SDS011;6454;43.304;24.344;2023-02-26T08:15:36;10.23;;;4.03;;
12780;SDS011;6454;43.304;24.344;2023-02-26T08:18:03;12.02;;;4.28;;
12780;SDS011;6454;43.304;24.344;2023-02-26T08:20:31;7.50;;;3.72;;
12780;SDS011;6454;43.304;24.344;2023-02-26T08:22:58;14.23;;;3.80;;
12780;SDS011;6454;43.304;24.344;2023-02-26T08:25:24;11.32;;;4.25;;
12780;SDS011;6454;43.304;24.344;2023-02-26T08:27:51;16.35;;;3.92;;
12780;SDS011;6454;43.304;24.344;2023-02-26T08:30:18;13.23;;;3.85;;
12780;SDS011;6454;43.304;24.344;2023-02-26T08:32:45;13.73;;;4.10;;
12780;SDS011;6454;43.304;24.344;2023-02-26T08:35:14;13.95;;;4.35;;
12780;SDS011;6454;43.304;24.344;2023-02-26T08:37:42;13.18;;;3.70;;
12780;SDS011;6454;43.304;24.344;2023-02-26T08:40:09;16.23;;;4.28;;
12780;SDS011;6454;43.304;24.344;2023-02-26T08:42:37;10.68;;;3.78;;
12780;SDS011;6454;43.304;24.344;2023-02-26T08:45:04;13.35;;;4.25;;
12780;SDS011;6454;43.304;24.344;2023-02-26T08:47:32;12.02;;;4.22;;
12780;SDS011;6454;43.304;24.344;2023-02-26T08:49:59;11.73;;;3.85;;
12780;SDS011;6454;43.304;24.344;2023-02-26T08:52:27;14.48;;;3.95;;
12780;SDS011;6454;43.304;24.344;2023-02-26T08:54:55;12.90;;;3.85;;
12780;SDS011;6454;43.304;24.344;2023-02-26T08:57:22;14.95;;;4.57;;
12780;SDS011;6454;43.304;24.344;2023-02-26T08:59:49;15.90;;;4.00;;
12780;SDS011;6454;43.304;24.344;2023-02-26T09:02:15;12.85;;;3.72;;
12780;SDS011;6454;43.304;24.344;2023-02-26T09:04:42;12.50;;;3.80;;
12780;SDS011;6454;43.304;24.344;2023-02-26T09:07:09;15.78;;;4.18;;
12780;SDS011;6454;43.304;24.344;2023-02-26T09:09:36;11.75;;;3.85;;
12780;SDS011;6454;43.304;24.344;2023-02-26T09:12:05;12.52;;;3.83;;
12780;SDS011;6454;43.304;24.344;2023-02-26T09:14:31;13.18;;;4.05;;
12780;SDS011;6454;43.304;24.344;2023-02-26T09:16:58;15.73;;;4.22;;
12780;SDS011;6454;43.304;24.344;2023-02-26T09:19:25;9.77;;;3.65;;
12780;SDS011;6454;43.304;24.344;2023-02-26T09:21:52;12.55;;;3.97;;
12780;SDS011;6454;43.304;24.344;2023-02-26T09:24:19;12.00;;;3.80;;
12780;SDS011;6454;43.304;24.344;2023-02-26T09:26:45;13.15;;;4.07;;
12780;SDS011;6454;43.304;24.344;2023-02-26T09:29:13;17.80;;;4.72;;
12780;SDS011;6454;43.304;24.344;2023-02-26T09:31:40;12.63;;;4.00;;
12780;SDS011;6454;43.304;24.344;2023-02-26T09:34:07;11.40;;;5.22;;
12780;SDS011;6454;43.304;24.344;2023-02-26T09:36:34;13.38;;;4.45;;
12780;SDS011;6454;43.304;24.344;2023-02-26T09:39:01;15.40;;;4.97;;
12780;SDS011;6454;43.304;24.344;2023-02-26T09:41:29;18.95;;;5.25;;
12780;SDS011;6454;43.304;24.344;2023-02-26T09:49:36;11.30;;;3.97;;
12780;SDS011;6454;43.304;24.344;2023-02-26T09:52:17;10.90;;;3.60;;
12780;SDS011;6454;43.304;24.344;2023-02-26T09:54:49;16.23;;;3.97;;
12780;SDS011;6454;43.304;24.344;2023-02-26T09:57:25;11.73;;;3.65;;
12780;SDS011;6454;43.304;24.344;2023-02-26T09:59:58;11.50;;;3.90;;
12780;SDS011;6454;43.304;24.344;2023-02-26T10:02:30;13.05;;;3.90;;
12780;SDS011;6454;43.304;24.344;2023-02-26T10:05:07;15.40;;;4.20;;
12780;SDS011;6454;43.304;24.344;2023-02-26T10:07:44;16.55;;;4.22;;
12780;SDS011;6454;43.304;24.344;2023-02-26T10:10:18;18.83;;;4.05;;
12780;SDS011;6454;43.304;24.344;2023-02-26T10:12:52;12.95;;;4.47;;
12780;SDS011;6454;43.304;24.344;2023-02-26T10:15:21;12.13;;;3.35;;
12780;SDS011;6454;43.304;24.344;2023-02-26T10:17:54;16.52;;;4.07;;
12780;SDS011;6454;43.304;24.344;2023-02-26T10:20:28;18.20;;;4.45;;
12780;SDS011;6454;43.304;24.344;2023-02-26T10:23:02;14.35;;;3.80;;
12780;SDS011;6454;43.304;24.344;2023-02-26T10:25:35;13.60;;;3.55;;
12780;SDS011;6454;43.304;24.344;2023-02-26T10:28:07;13.57;;;3.72;;
12780;SDS011;6454;43.304;24.344;2023-02-26T10:30:52;12.05;;;3.70;;
12780;SDS011;6454;43.304;24.344;2023-02-26T10:33:27;12.20;;;3.58;;
12780;SDS011;6454;43.304;24.344;2023-02-26T10:36:07;14.60;;;3.42;;
12780;SDS011;6454;43.304;24.344;2023-02-26T10:38:40;11.35;;;3.58;;
12780;SDS011;6454;43.304;24.344;2023-02-26T10:41:09;15.07;;;3.95;;
12780;SDS011;6454;43.304;24.344;2023-02-26T10:43:41;21.63;;;4.28;;
12780;SDS011;6454;43.304;24.344;2023-02-26T10:46:15;15.75;;;3.90;;
12780;SDS011;6454;43.304;24.344;2023-02-26T10:48:54;14.60;;;4.35;;
12780;SDS011;6454;43.304;24.344;2023-02-26T10:51:31;15.43;;;4.00;;
12780;SDS011;6454;43.304;24.344;2023-02-26T10:54:02;18.00;;;4.40;;
12780;SDS011;6454;43.304;24.344;2023-02-26T10:56:37;14.05;;;3.90;;
12780;SDS011;6454;43.304;24.344;2023-02-26T10:59:04;12.38;;;4.05;;
12780;SDS011;6454;43.304;24.344;2023-02-26T11:01:32;19.77;;;4.55;;
12780;SDS011;6454;43.304;24.344;2023-02-26T11:04:00;12.32;;;4.00;;
12780;SDS011;6454;43.304;24.344;2023-02-26T11:06:32;19.30;;;4.30;;
12780;SDS011;6454;43.304;24.344;2023-02-26T11:09:02;19.58;;;4.60;;
12780;SDS011;6454;43.304;24.344;2023-02-26T11:11:34;16.25;;;3.95;;
12780;SDS011;6454;43.304;24.344;2023-02-26T11:14:05;19.92;;;4.15;;
12780;SDS011;6454;43.304;24.344;2023-02-26T11:16:34;14.77;;;4.18;;
12780;SDS011;6454;43.304;24.344;2023-02-26T11:19:01;17.70;;;4.38;;
12780;SDS011;6454;43.304;24.344;2023-02-26T11:21:33;17.65;;;3.92;;
12780;SDS011;6454;43.304;24.344;2023-02-26T11:24:04;14.77;;;4.75;;
12780;SDS011;6454;43.304;24.344;2023-02-26T11:26:35;16.83;;;4.78;;
12780;SDS011;6454;43.304;24.344;2023-02-26T11:29:03;17.77;;;4.80;;
12780;SDS011;6454;43.304;24.344;2023-02-26T11:31:31;13.45;;;4.15;;
12780;SDS011;6454;43.304;24.344;2023-02-26T11:34:01;18.33;;;4.32;;
12780;SDS011;6454;43.304;24.344;2023-02-26T11:36:29;16.95;;;4.25;;
12780;SDS011;6454;43.304;24.344;2023-02-26T11:39:00;19.08;;;4.65;;
12780;SDS011;6454;43.304;24.344;2023-02-26T11:41:28;23.33;;;4.30;;
12780;SDS011;6454;43.304;24.344;2023-02-26T11:43:58;16.95;;;4.43;;
12780;SDS011;6454;43.304;24.344;2023-02-26T11:46:28;19.40;;;4.47;;
12780;SDS011;6454;43.304;24.344;2023-02-26T11:48:55;14.48;;;4.85;;
12780;SDS011;6454;43.304;24.344;2023-02-26T11:51:27;14.65;;;4.38;;
12780;SDS011;6454;43.304;24.344;2023-02-26T11:53:55;13.70;;;4.20;;
12780;SDS011;6454;43.304;24.344;2023-02-26T11:56:26;16.95;;;5.35;;
12780;SDS011;6454;43.304;24.344;2023-02-26T11:58:57;14.75;;;4.60;;
12780;SDS011;6454;43.304;24.344;2023-02-26T12:01:28;18.17;;;4.47;;
12780;SDS011;6454;43.304;24.344;2023-02-26T12:03:57;12.20;;;3.78;;
12780;SDS011;6454;43.304;24.344;2023-02-26T12:06:28;17.63;;;4.20;;
12780;SDS011;6454;43.304;24.344;2023-02-26T12:08:55;16.05;;;4.40;;
12780;SDS011;6454;43.304;24.344;2023-02-26T12:11:29;14.00;;;4.30;;
12780;SDS011;6454;43.304;24.344;2023-02-26T12:14:13;20.40;;;7.15;;
12780;SDS011;6454;43.304;24.344;2023-02-26T12:16:59;15.85;;;4.82;;
12780;SDS011;6454;43.304;24.344;2023-02-26T12:19:37;17.85;;;4.65;;
12780;SDS011;6454;43.304;24.344;2023-02-26T12:22:16;13.70;;;4.20;;
12780;SDS011;6454;43.304;24.344;2023-02-26T12:25:08;18.77;;;4.45;;
12780;SDS011;6454;43.304;24.344;2023-02-26T12:30:51;17.02;;;4.90;;
12780;SDS011;6454;43.304;24.344;2023-02-26T12:33:30;14.27;;;4.88;;
12780;SDS011;6454;43.304;24.344;2023-02-26T12:36:19;12.75;;;4.30;;
12780;SDS011;6454;43.304;24.344;2023-02-26T12:38:58;14.75;;;4.90;;
12780;SDS011;6454;43.304;24.344;2023-02-26T12:41:40;15.75;;;4.53;;
12780;SDS011;6454;43.304;24.344;2023-02-26T12:44:19;16.15;;;4.47;;
12780;SDS011;6454;43.304;24.344;2023-02-26T12:47:02;22.95;;;5.10;;
12780;SDS011;6454;43.304;24.344;2023-02-26T12:49:52;23.20;;;5.72;;
12780;SDS011;6454;43.304;24.344;2023-02-26T12:52:35;19.33;;;5.13;;
12780;SDS011;6454;43.304;24.344;2023-02-26T12:55:24;13.70;;;4.47;;
12780;SDS011;6454;43.304;24.344;2023-02-26T12:58:19;16.30;;;4.20;;
12780;SDS011;6454;43.304;24.344;2023-02-26T13:01:25;15.45;;;4.30;;
12780;SDS011;6454;43.304;24.344;2023-02-26T13:04:09;18.73;;;4.57;;
12780;SDS011;6454;43.304;24.344;2023-02-26T13:07:16;11.18;;;4.43;;
12780;SDS011;6454;43.304;24.344;2023-02-26T13:09:56;10.35;;;3.95;;
12780;SDS011;6454;43.304;24.344;2023-02-26T13:12:32;15.38;;;4.55;;
12780;SDS011;6454;43.304;24.344;2023-02-26T13:15:14;21.27;;;6.57;;
12780;SDS011;6454;43.304;24.344;2023-02-26T13:18:04;17.75;;;5.78;;
12780;SDS011;6454;43.304;24.344;2023-02-26T13:20:37;16.50;;;5.65;;
12780;SDS011;6454;43.304;24.344;2023-02-26T13:23:08;11.65;;;5.40;;
12780;SDS011;6454;43.304;24.344;2023-02-26T13:25:39;15.60;;;5.65;;
12780;SDS011;6454;43.304;24.344;2023-02-26T13:28:18;13.85;;;6.28;;
12780;SDS011;6454;43.304;24.344;2023-02-26T13:30:57;16.63;;;5.30;;
12780;SDS011;6454;43.304;24.344;2023-02-26T13:33:27;15.50;;;5.40;;
12780;SDS011;6454;43.304;24.344;2023-02-26T13:35:57;19.45;;;4.55;;
12780;SDS011;6454;43.304;24.344;2023-02-26T13:38:29;19.83;;;5.60;;
12780;SDS011;6454;43.304;24.344;2023-02-26T13:41:06;13.20;;;4.18;;
12780;SDS011;6454;43.304;24.344;2023-02-26T13:43:44;16.48;;;4.95;;
12780;SDS011;6454;43.304;24.344;2023-02-26T13:46:23;11.77;;;4.50;;
12780;SDS011;6454;43.304;24.344;2023-02-26T13:49:02;16.35;;;4.20;;
12780;SDS011;6454;43.304;24.344;2023-02-26T13:51:36;19.88;;;4.50;;
12780;SDS011;6454;43.304;24.344;2023-02-26T13:54:07;17.23;;;4.35;;
12780;SDS011;6454;43.304;24.344;2023-02-26T13:56:47;18.48;;;4.32;;
12780;SDS011;6454;43.304;24.344;2023-02-26T13:59:28;16.33;;;5.18;;
12780;SDS011;6454;43.304;24.344;2023-02-26T14:02:01;17.23;;;4.50;;
12780;SDS011;6454;43.304;24.344;2023-02-26T14:04:49;15.52;;;5.25;;
12780;SDS011;6454;43.304;24.344;2023-02-26T14:07:21;14.85;;;4.72;;
12780;SDS011;6454;43.304;24.344;2023-02-26T14:10:15;18.25;;;5.78;;
12780;SDS011;6454;43.304;24.344;2023-02-26T14:13:00;18.77;;;5.70;;
12780;SDS011;6454;43.304;24.344;2023-02-26T14:15:39;15.05;;;5.55;;
12780;SDS011;6454;43.304;24.344;2023-02-26T14:24:01;10.75;;;4.50;;
12780;SDS011;6454;43.304;24.344;2023-02-26T14:26:32;13.52;;;4.65;;
12780;SDS011;6454;43.304;24.344;2023-02-26T14:29:12;17.70;;;4.95;;
12780;SDS011;6454;43.304;24.344;2023-02-26T14:34:39;18.33;;;4.95;;
12780;SDS011;6454;43.304;24.344;2023-02-26T14:37:14;19.15;;;5.30;;
12780;SDS011;6454;43.304;24.344;2023-02-26T14:39:44;18.63;;;4.80;;
12780;SDS011;6454;43.304;24.344;2023-02-26T14:42:15;15.30;;;4.40;;
12780;SDS011;6454;43.304;24.344;2023-02-26T14:44:47;16.73;;;5.05;;
12780;SDS011;6454;43.304;24.344;2023-02-26T14:47:19;17.38;;;5.22;;
12780;SDS011;6454;43.304;24.344;2023-02-26T14:49:47;14.13;;;4.97;;
12780;SDS011;6454;43.304;24.344;2023-02-26T14:52:31;15.63;;;5.55;;
12780;SDS011;6454;43.304;24.344;2023-02-26T14:55:40;16.08;;;5.55;;
12780;SDS011;6454;43.304;24.344;2023-02-26T14:58:16;12.50;;;4.88;;
12780;SDS011;6454;43.304;24.344;2023-02-26T15:00:52;17.17;;;5.40;;
12780;SDS011;6454;43.304;24.344;2023-02-26T15:03:44;16.10;;;4.20;;
12780;SDS011;6454;43.304;24.344;2023-02-26T15:06:35;14.50;;;4.13;;
12780;SDS011;6454;43.304;24.344;2023-02-26T15:09:14;17.58;;;4.93;;
12780;SDS011;6454;43.304;24.344;2023-02-26T15:11:52;15.88;;;5.05;;
12780;SDS011;6454;43.304;24.344;2023-02-26T15:14:34;15.60;;;4.72;;
12780;SDS011;6454;43.304;24.344;2023-02-26T15:17:14;18.90;;;4.78;;
12780;SDS011;6454;43.304;24.344;2023-02-26T15:25:43;12.48;;;5.20;;
12780;SDS011;6454;43.304;24.344;2023-02-26T15:28:13;16.92;;;10.50;;
12780;SDS011;6454;43.304;24.344;2023-02-26T15:30:47;15.55;;;9.38;;
12780;SDS011;6454;43.304;24.344;2023-02-26T15:33:16;17.48;;;10.45;;